createdAt,value
2019-02-03T00:04:08.752Z,94.35
2019-02-03T00:10:13.784Z,93.95
2019-02-03T00:16:18.531Z,94.11
2019-02-03T00:22:24.023Z,94.47
2019-02-03T00:28:28.903Z,94.66
2019-02-03T00:34:33.570Z,93.65
2019-02-03T00:40:38.208Z,94.22
2019-02-03T00:46:43.602Z,93.27
2019-02-03T00:52:48.236Z,93.10
2019-02-03T00:58:52.930Z,92.46
2019-02-03T01:04:57.851Z,92.79
2019-02-03T01:11:02.646Z,91.09
2019-02-03T01:17:07.967Z,92.53
2019-02-03T01:23:13.480Z,92.19
2019-02-03T01:29:18.358Z,91.15
2019-02-03T01:35:23.114Z,90.63
2019-02-03T01:41:28.349Z,90.86
2019-02-03T01:47:32.935Z,90.44
2019-02-03T01:53:43.958Z,90.44
2019-02-03T01:59:48.825Z,89.99
2019-02-03T02:05:53.629Z,89.77
2019-02-03T02:11:58.402Z,90.04
2019-02-03T02:18:03.067Z,90.28
2019-02-03T02:24:07.742Z,89.24
2019-02-03T02:30:18.008Z,88.53
2019-02-03T02:36:22.647Z,87.93
2019-02-03T02:42:27.415Z,88.42
2019-02-03T02:48:34.635Z,87.95
2019-02-03T02:54:39.313Z,88.49
2019-02-03T03:00:44.491Z,87.98
2019-02-03T03:06:49.390Z,87.94
2019-02-03T03:12:54.020Z,88.59
2019-02-03T03:18:58.938Z,89.06
2019-02-03T03:25:07.375Z,88.93
2019-02-03T03:31:12.431Z,88.88
2019-02-03T03:37:17.181Z,88.09
2019-02-03T03:43:21.896Z,88.74
2019-02-03T03:49:26.549Z,88.42
2019-02-03T03:55:31.249Z,88.65
2019-02-03T04:01:36.601Z,88.15
2019-02-03T04:07:41.743Z,87.63
2019-02-03T04:13:46.396Z,87.81
2019-02-03T04:19:51.122Z,88.27
2019-02-03T04:25:56.131Z,88.54
2019-02-03T04:32:00.835Z,88.49
2019-02-03T04:38:05.752Z,89.10
2019-02-03T04:44:10.598Z,88.52
2019-02-03T04:50:18.342Z,88.88
2019-02-03T04:56:22.889Z,88.07
2019-02-03T05:02:27.528Z,88.46
2019-02-03T05:08:32.197Z,87.90
2019-02-03T05:14:36.940Z,88.30
2019-02-03T05:20:42.152Z,88.18
2019-02-03T05:26:46.957Z,87.93
2019-02-03T05:32:53.131Z,87.68
2019-02-03T05:38:58.083Z,87.76
2019-02-03T05:45:02.815Z,88.54
2019-02-03T05:51:07.444Z,88.44
2019-02-03T05:57:12.699Z,88.15
2019-02-03T06:03:17.420Z,87.99
2019-02-03T06:09:22.436Z,87.75
2019-02-03T06:15:27.465Z,87.97
2019-02-03T06:21:32.251Z,87.53
2019-02-03T06:27:36.873Z,87.62
2019-02-03T06:33:42.476Z,87.14
2019-02-03T06:39:48.868Z,86.96
2019-02-03T06:45:55.294Z,87.18
2019-02-03T06:52:00.112Z,86.77
2019-02-03T06:58:05.003Z,86.29
2019-02-03T07:04:09.614Z,86.36
2019-02-03T07:10:14.590Z,87.00
2019-02-03T07:16:19.152Z,86.48
2019-02-03T07:22:23.717Z,85.93
2019-02-03T07:28:28.561Z,85.28
2019-02-03T07:34:33.359Z,85.23
2019-02-03T07:40:37.985Z,85.14
2019-02-03T07:46:43.647Z,84.81
2019-02-03T07:52:48.739Z,85.34
2019-02-03T07:58:53.310Z,85.20
2019-02-03T08:04:57.932Z,85.48
2019-02-03T08:11:04.667Z,85.38
2019-02-03T08:17:08.820Z,84.23
2019-02-03T08:23:16.517Z,85.06
2019-02-03T08:29:22.968Z,85.75
2019-02-03T08:35:27.629Z,85.68
2019-02-03T08:41:32.252Z,85.68
2019-02-03T08:47:36.818Z,85.16
2019-02-03T08:53:41.420Z,85.41
2019-02-03T08:59:46.070Z,85.17
2019-02-03T09:05:50.780Z,84.00
2019-02-03T09:11:55.454Z,83.13
2019-02-03T09:18:00.150Z,83.39
2019-02-03T09:24:05.557Z,82.02
2019-02-03T09:30:16.151Z,82.01
2019-02-03T09:36:22.372Z,81.45
2019-02-03T09:42:27.071Z,79.78
2019-02-03T09:48:31.734Z,79.20
2019-02-03T09:54:36.379Z,78.80
2019-02-03T10:00:41.081Z,77.76
2019-02-03T10:06:45.702Z,78.47
2019-02-03T10:12:50.403Z,77.62
2019-02-03T10:18:54.960Z,78.25
2019-02-03T10:25:00.879Z,76.71
2019-02-03T10:31:05.572Z,77.81
2019-02-03T10:37:10.397Z,78.44
2019-02-03T10:43:15.257Z,78.63
2019-02-03T10:49:19.903Z,79.43
2019-02-03T10:55:25.247Z,80.02
2019-02-03T11:01:30.019Z,79.92
2019-02-03T11:07:35.009Z,79.89
2019-02-03T11:13:39.621Z,79.50
2019-02-03T11:19:44.598Z,79.98
2019-02-03T11:25:49.653Z,79.69
2019-02-03T11:31:54.515Z,79.51
2019-02-03T11:37:59.578Z,79.32
2019-02-03T11:44:04.435Z,78.40
2019-02-03T11:50:29.748Z,78.49
2019-02-03T11:56:34.303Z,76.96
2019-02-03T12:02:42.051Z,77.42
2019-02-03T12:08:45.722Z,77.32
2019-02-03T12:14:50.282Z,77.37
2019-02-03T12:20:57.406Z,76.02
2019-02-03T12:27:01.963Z,76.26
2019-02-03T12:33:08.346Z,75.29
2019-02-03T12:39:13.421Z,74.68
2019-02-03T12:45:23.728Z,74.64
2019-02-03T12:51:28.307Z,74.55
2019-02-03T12:57:33.549Z,74.47
2019-02-03T13:03:42.147Z,74.63
2019-02-03T13:09:46.865Z,75.46
2019-02-03T13:15:52.717Z,75.71
2019-02-03T13:21:58.519Z,76.12
2019-02-03T13:28:03.243Z,77.01
2019-02-03T13:34:07.956Z,77.33
2019-02-03T13:40:14.477Z,76.46
2019-02-03T13:46:19.095Z,76.22
2019-02-03T13:52:23.814Z,75.19
2019-02-03T13:58:36.748Z,74.97
2019-02-03T14:04:34.842Z,73.76
2019-02-03T14:10:42.259Z,73.06
2019-02-03T14:16:46.854Z,72.17
2019-02-03T14:22:51.751Z,72.96
2019-02-03T14:28:56.324Z,72.52
2019-02-03T14:35:00.885Z,72.56
2019-02-03T14:41:09.316Z,71.98
2019-02-03T14:47:14.266Z,71.91
2019-02-03T14:53:19.096Z,72.80
2019-02-03T14:59:23.658Z,73.98
2019-02-03T15:05:28.305Z,73.44
2019-02-03T15:11:32.948Z,73.73
2019-02-03T15:17:39.360Z,73.91
2019-02-03T15:23:44.303Z,73.76
2019-02-03T15:29:49.075Z,73.46
2019-02-03T15:35:53.808Z,74.27
2019-02-03T15:41:58.450Z,74.35
2019-02-03T15:48:03.030Z,72.26
2019-02-03T15:54:07.861Z,73.17
2019-02-03T16:00:37.351Z,73.68
2019-02-03T16:06:42.055Z,73.99
2019-02-03T16:12:46.915Z,74.06
2019-02-03T16:18:51.734Z,74.53
2019-02-03T16:24:56.364Z,74.29
2019-02-03T16:31:00.954Z,74.93
2019-02-03T16:37:06.559Z,73.74
2019-02-03T16:43:11.277Z,74.30
2019-02-03T16:49:16.699Z,74.40
2019-02-03T16:55:22.072Z,74.52
2019-02-03T17:01:26.719Z,75.36
2019-02-03T17:07:31.314Z,75.92
2019-02-03T17:13:36.288Z,76.50
2019-02-03T17:19:41.132Z,76.63
2019-02-03T17:25:53.138Z,77.35
2019-02-03T17:31:57.774Z,78.00
2019-02-03T17:38:02.483Z,78.86
2019-02-03T17:44:12.885Z,79.80
2019-02-03T17:50:18.154Z,80.47
2019-02-03T17:56:22.900Z,79.84
2019-02-03T18:02:27.600Z,80.47
2019-02-03T18:08:33.362Z,79.56
2019-02-03T18:14:37.937Z,79.76
2019-02-03T18:20:42.586Z,79.31
2019-02-03T18:26:47.268Z,80.22
2019-02-03T18:32:52.223Z,80.15
2019-02-03T18:38:56.936Z,80.56
2019-02-03T18:45:02.620Z,80.77
2019-02-03T18:51:07.330Z,81.25
2019-02-03T18:57:12.508Z,82.57
2019-02-03T19:03:17.530Z,82.58
2019-02-03T19:09:22.163Z,82.92
2019-02-03T19:15:29.736Z,83.25
2019-02-03T19:21:34.644Z,84.37
2019-02-03T19:27:39.391Z,83.87
2019-02-03T19:33:44.047Z,84.02
2019-02-03T19:39:48.598Z,84.15
2019-02-03T19:45:53.192Z,84.43
2019-02-03T19:51:59.689Z,84.31
2019-02-03T19:58:08.217Z,84.76
2019-02-03T20:04:13.091Z,85.13
2019-02-03T20:10:22.249Z,85.87
2019-02-03T20:16:27.280Z,86.29
2019-02-03T20:22:31.838Z,87.01
2019-02-03T20:28:36.489Z,86.88
2019-02-03T20:34:44.151Z,86.89
2019-02-03T20:40:48.738Z,86.75
2019-02-03T20:46:53.373Z,86.63
2019-02-03T20:52:58.139Z,86.55
2019-02-03T20:59:02.948Z,87.30
2019-02-03T21:05:08.806Z,86.83
2019-02-03T21:11:13.522Z,87.33
2019-02-03T21:17:18.093Z,87.90
2019-02-03T21:23:23.729Z,88.14
2019-02-03T21:29:28.329Z,88.50
2019-02-03T21:35:32.941Z,88.75
2019-02-03T21:41:37.731Z,88.66
2019-02-03T21:47:42.535Z,88.79
2019-02-03T21:53:47.478Z,89.33
2019-02-03T21:59:52.028Z,90.00
2019-02-03T22:05:56.604Z,89.60
2019-02-03T22:12:02.187Z,89.69
2019-02-03T22:18:07.251Z,89.57
2019-02-03T22:24:12.232Z,88.55
2019-02-03T22:30:26.578Z,88.97
2019-02-03T22:36:31.301Z,90.07
2019-02-03T22:42:35.949Z,90.01
2019-02-03T22:48:40.674Z,91.71
2019-02-03T22:54:45.359Z,91.62
2019-02-03T23:00:55.451Z,91.69
2019-02-03T23:07:00.149Z,90.55
2019-02-03T23:13:05.293Z,91.13
2019-02-03T23:19:12.868Z,91.20
2019-02-03T23:25:17.739Z,91.01
2019-02-03T23:31:22.409Z,91.18
2019-02-03T23:37:27.179Z,92.01
2019-02-03T23:43:31.840Z,91.17
2019-02-03T23:49:37.184Z,90.49
2019-02-03T23:55:42.359Z,90.64
